Terminal Aerodrome Forecast
Issued by NWS

Home | Current Version | Previous Version | Text Only | Print | Product List | Glossary On
Versions: 1 2 3 4 5 6 7 8 9 10 11 12
000
FTUS44 KTSA 260520
TAFRVS
TAF
KRVS 260520Z 2606/2706 18005KT P6SM SKC
     FM261500 20011G17KT P6SM SCT050
     FM270000 18006KT P6SM SKC=

USA.gov is the U.S. government's official web portal to all federal, state and local government web resources and services.